createdAt,value
2023-04-11T00:01:45.230Z,96309.27
2023-04-11T00:04:14.974Z,96304.21
2023-04-11T00:06:43.475Z,96302.51
2023-04-11T00:09:12.161Z,96294.54
2023-04-11T00:11:40.143Z,96290.45
2023-04-11T00:14:09.090Z,96291.19
2023-04-11T00:16:37.031Z,96285.92
2023-04-11T00:19:07.526Z,96282.88
2023-04-11T00:21:39.863Z,96279.30
2023-04-11T00:24:08.849Z,96273.45
2023-04-11T00:26:36.819Z,96271.98
2023-04-11T00:29:04.728Z,96274.11
2023-04-11T00:31:32.721Z,96272.83
2023-04-11T00:34:00.696Z,96265.85
2023-04-11T00:36:28.658Z,96264.45
2023-04-11T00:38:58.483Z,96264.13
2023-04-11T00:41:27.306Z,96267.09
2023-04-11T00:43:55.289Z,96263.73
2023-04-11T00:46:23.617Z,96261.98
2023-04-11T00:48:52.497Z,96260.02
2023-04-11T00:51:21.366Z,96254.36
2023-04-11T00:53:49.563Z,96253.81
2023-04-11T00:56:18.178Z,96255.77
2023-04-11T00:58:46.426Z,96250.63
2023-04-11T01:01:16.781Z,96244.14
2023-04-11T01:03:45.613Z,96243.13
2023-04-11T01:06:16.020Z,96237.06
2023-04-11T01:08:45.111Z,96236.99
2023-04-11T01:11:18.126Z,96233.06
2023-04-11T01:13:46.559Z,96226.95
2023-04-11T01:16:15.401Z,96227.39
2023-04-11T01:18:43.456Z,96217.25
2023-04-11T01:21:11.548Z,96219.56
2023-04-11T01:23:41.122Z,96221.33
2023-04-11T01:26:09.057Z,96220.40
2023-04-11T01:28:37.074Z,96219.05
2023-04-11T01:31:06.795Z,96219.22
2023-04-11T01:33:35.950Z,96221.23
2023-04-11T01:36:04.497Z,96218.55
2023-04-11T01:38:32.563Z,96216.20
2023-04-11T01:41:00.708Z,96217.52
2023-04-11T01:43:28.922Z,96214.48
2023-04-11T01:45:57.137Z,96210.92
2023-04-11T01:48:25.123Z,96209.64
2023-04-11T01:50:55.551Z,96204.65
2023-04-11T01:53:23.503Z,96198.88
2023-04-11T01:55:52.202Z,96191.16
2023-04-11T01:58:20.775Z,96186.86
2023-04-11T02:00:48.721Z,96184.41
2023-04-11T02:03:18.897Z,96186.30
2023-04-11T02:05:47.168Z,96188.92
2023-04-11T02:08:15.052Z,96182.13
2023-04-11T02:10:43.083Z,96180.05
2023-04-11T02:13:10.973Z,96175.31
2023-04-11T02:15:39.479Z,96176.46
2023-04-11T02:18:09.672Z,96173.20
2023-04-11T02:20:37.677Z,96171.86
2023-04-11T02:23:05.743Z,96169.73
2023-04-11T02:25:34.116Z,96167.92
2023-04-11T02:28:02.287Z,96164.45
2023-04-11T02:30:30.678Z,96158.02
2023-04-11T02:32:58.594Z,96156.63
2023-04-11T02:35:26.612Z,96147.90
2023-04-11T02:37:54.543Z,96145.42
2023-04-11T02:40:22.458Z,96142.01
2023-04-11T02:42:50.487Z,96140.48
2023-04-11T02:45:18.800Z,96138.45
2023-04-11T02:47:46.761Z,96139.96
2023-04-11T02:50:15.584Z,96138.48
2023-04-11T02:52:49.475Z,96138.39
2023-04-11T02:55:23.010Z,96133.94
2023-04-11T02:57:51.949Z,96136.55
2023-04-11T03:00:21.483Z,96136.65
2023-04-11T03:02:52.802Z,96134.32
2023-04-11T03:05:22.925Z,96132.42
2023-04-11T03:07:52.893Z,96133.20
2023-04-11T03:10:21.155Z,96131.73
2023-04-11T03:12:49.121Z,96128.92
2023-04-11T03:15:17.760Z,96123.29
2023-04-11T03:17:45.901Z,96121.42
2023-04-11T03:20:19.598Z,96118.06
2023-04-11T03:22:49.566Z,96115.20
2023-04-11T03:25:18.500Z,96117.61
2023-04-11T03:27:47.908Z,96114.52
2023-04-11T03:30:16.180Z,96112.18
2023-04-11T03:32:46.421Z,96113.40
2023-04-11T03:35:14.970Z,96108.66
2023-04-11T03:37:47.570Z,96111.95
2023-04-11T03:40:18.590Z,96108.13
2023-04-11T03:42:49.977Z,96105.27
2023-04-11T03:45:21.208Z,96103.70
2023-04-11T03:47:49.452Z,96097.75
2023-04-11T03:53:03.664Z,96092.91
2023-04-11T03:55:32.273Z,96095.08
2023-04-11T03:58:01.164Z,96093.73
2023-04-11T04:00:29.541Z,96089.33
2023-04-11T04:03:02.576Z,96090.98
2023-04-11T04:05:30.976Z,96087.39
2023-04-11T04:07:58.977Z,96092.71
2023-04-11T04:10:40.758Z,96094.97
2023-04-11T04:13:08.725Z,96093.96
2023-04-11T04:15:41.412Z,96098.70
2023-04-11T04:18:10.114Z,96099.36
2023-04-11T04:20:49.152Z,96096.67
2023-04-11T04:23:18.316Z,96094.05
2023-04-11T04:26:13.244Z,96091.44
2023-04-11T04:28:47.962Z,96089.85
2023-04-11T04:31:25.722Z,96088.23
2023-04-11T04:34:08.792Z,96082.39
2023-04-11T04:36:47.954Z,96080.67
2023-04-11T04:39:19.938Z,96078.43
2023-04-11T04:41:58.485Z,96071.90
2023-04-11T04:44:29.324Z,96068.80
2023-04-11T04:47:00.449Z,96064.58
2023-04-11T04:49:28.782Z,96059.88
2023-04-11T04:51:56.681Z,96058.80
2023-04-11T04:54:24.993Z,96051.96
2023-04-11T04:56:54.304Z,96050.30
2023-04-11T04:59:23.149Z,96045.80
2023-04-11T05:01:55.285Z,96045.27
2023-04-11T05:04:28.120Z,96040.00
2023-04-11T05:06:58.984Z,96036.80
2023-04-11T05:09:27.834Z,96041.06
2023-04-11T05:12:03.674Z,96038.86
2023-04-11T05:14:32.274Z,96039.31
2023-04-11T05:17:01.036Z,96032.15
2023-04-11T05:19:30.437Z,96033.97
2023-04-11T05:21:58.425Z,96032.15
2023-04-11T05:24:26.718Z,96027.25
2023-04-11T05:26:55.290Z,96022.40
2023-04-11T05:29:23.321Z,96013.80
2023-04-11T05:31:51.508Z,96007.78
2023-04-11T05:34:19.722Z,95999.78
2023-04-11T05:36:49.696Z,95998.16
2023-04-11T05:39:17.676Z,95994.92
2023-04-11T05:41:45.660Z,95994.88
2023-04-11T05:44:13.646Z,95992.73
2023-04-11T05:46:41.741Z,95991.65
2023-04-11T05:49:09.948Z,95985.55
2023-04-11T05:51:37.934Z,95979.62
2023-04-11T05:54:06.084Z,95976.03
2023-04-11T05:56:35.433Z,95972.59
2023-04-11T05:59:04.480Z,95975.09
2023-04-11T06:01:32.847Z,95976.86
2023-04-11T06:04:01.305Z,95969.72
2023-04-11T06:06:29.698Z,95968.93
2023-04-11T06:08:57.770Z,95968.09
2023-04-11T06:11:27.496Z,95965.73
2023-04-11T06:13:55.605Z,95964.39
2023-04-11T06:16:23.777Z,95961.45
2023-04-11T06:18:51.986Z,95953.96
2023-04-11T06:21:20.085Z,95955.35
2023-04-11T06:23:48.020Z,95950.36
2023-04-11T06:26:16.169Z,95950.33
2023-04-11T06:28:44.230Z,95949.83
2023-04-11T06:31:12.274Z,95949.00
2023-04-11T06:33:40.264Z,95951.11
2023-04-11T06:36:08.759Z,95945.73
2023-04-11T06:38:38.217Z,95946.39
2023-04-11T06:41:06.679Z,95940.77
2023-04-11T06:43:34.575Z,95940.71
2023-04-11T06:46:02.561Z,95938.80
2023-04-11T06:48:30.692Z,95943.02
2023-04-11T06:50:58.634Z,95942.58
2023-04-11T06:53:26.766Z,95940.66
2023-04-11T06:55:54.832Z,95940.60
2023-04-11T06:58:23.220Z,95935.77
2023-04-11T07:00:51.584Z,95935.25
2023-04-11T07:03:19.951Z,95935.67
2023-04-11T07:05:48.117Z,95933.80
2023-04-11T07:08:16.420Z,95927.63
2023-04-11T07:10:44.393Z,95920.36
2023-04-11T07:13:12.429Z,95923.10
2023-04-11T07:15:40.499Z,95916.52
2023-04-11T07:18:08.549Z,95917.80
2023-04-11T07:20:36.562Z,95919.33
2023-04-11T07:23:04.612Z,95916.59
2023-04-11T07:25:33.923Z,95914.55
2023-04-11T07:28:02.438Z,95916.45
2023-04-11T07:30:30.352Z,95911.74
2023-04-11T07:32:58.385Z,95912.80
2023-04-11T07:35:26.505Z,95908.34
2023-04-11T07:37:55.001Z,95910.43
2023-04-11T07:40:23.184Z,95904.58
2023-04-11T07:42:51.077Z,95898.20
2023-04-11T07:45:19.724Z,95893.59
2023-04-11T07:47:48.617Z,95891.67
2023-04-11T07:50:16.680Z,95894.23
2023-04-11T07:52:44.595Z,95894.93
2023-04-11T07:55:12.486Z,95893.34
2023-04-11T07:57:40.409Z,95893.98
2023-04-11T08:00:11.576Z,95891.13
2023-04-11T08:02:42.757Z,95891.62
2023-04-11T08:05:11.158Z,95891.37
2023-04-11T08:07:39.214Z,95887.45
2023-04-11T08:10:08.141Z,95888.14
2023-04-11T08:12:36.071Z,95882.20
2023-04-11T08:15:04.987Z,95877.65
2023-04-11T08:17:37.915Z,95877.70
2023-04-11T08:20:09.341Z,95866.59
2023-04-11T08:22:39.092Z,95860.61
2023-04-11T08:25:09.503Z,95859.75
2023-04-11T08:27:41.098Z,95859.73
2023-04-11T08:30:09.255Z,95857.91
2023-04-11T08:32:38.106Z,95847.17
2023-04-11T08:35:06.340Z,95830.23
2023-04-11T08:37:34.220Z,95823.39
2023-04-11T08:40:02.157Z,95815.96
2023-04-11T08:42:31.212Z,95810.08
2023-04-11T08:45:01.820Z,95800.81
2023-04-11T08:47:30.248Z,95792.60
2023-04-11T08:49:58.337Z,95790.72
2023-04-11T08:52:27.292Z,95790.66
2023-04-11T08:54:55.457Z,95788.71
2023-04-11T08:57:31.799Z,95789.50
2023-04-11T09:00:15.324Z,95785.88
2023-04-11T09:03:04.471Z,95782.92
2023-04-11T09:05:33.512Z,95778.54
2023-04-11T09:08:09.409Z,95771.02
2023-04-11T09:10:38.272Z,95768.53
2023-04-11T09:13:24.313Z,95762.91
2023-04-11T09:16:05.874Z,95757.75
2023-04-11T09:18:36.156Z,95754.14
2023-04-11T09:21:12.692Z,95758.58
2023-04-11T09:23:41.300Z,95755.83
2023-04-11T09:26:10.702Z,95755.95
2023-04-11T09:28:54.846Z,95751.23
2023-04-11T09:31:45.554Z,95748.19
2023-04-11T09:34:13.518Z,95749.91
2023-04-11T09:36:42.545Z,95745.07
2023-04-11T09:39:20.577Z,95745.12
2023-04-11T09:41:48.595Z,95743.44
2023-04-11T09:44:16.624Z,95741.38
2023-04-11T09:46:58.512Z,95732.73
2023-04-11T09:49:27.189Z,95724.33
2023-04-11T09:51:55.927Z,95719.16
2023-04-11T09:54:25.472Z,95714.80
2023-04-11T09:56:53.538Z,95706.09
2023-04-11T09:59:22.355Z,95705.70
2023-04-11T10:01:51.658Z,95694.02
2023-04-11T10:04:21.428Z,95689.71
2023-04-11T10:06:55.136Z,95683.48
2023-04-11T10:09:24.378Z,95683.98
2023-04-11T10:11:52.428Z,95681.23
2023-04-11T10:14:42.255Z,95676.34
2023-04-11T10:17:15.216Z,95674.30
2023-04-11T10:19:44.990Z,95673.13
2023-04-11T10:22:43.409Z,95667.09
2023-04-11T10:25:29.964Z,95663.23
2023-04-11T10:28:04.719Z,95652.58
2023-04-11T10:30:41.673Z,95647.31
2023-04-11T10:33:11.372Z,95645.31
2023-04-11T10:36:05.469Z,95642.45
2023-04-11T10:38:49.042Z,95642.55
2023-04-11T10:41:28.753Z,95637.91
2023-04-11T10:44:18.342Z,95641.70
2023-04-11T10:46:48.957Z,95643.52
2023-04-11T10:49:36.501Z,95643.32
2023-04-11T10:52:22.490Z,95645.66
2023-04-11T10:54:52.469Z,95648.78
2023-04-11T10:57:23.095Z,95642.74
2023-04-11T10:59:51.430Z,95642.84
2023-04-11T11:02:21.822Z,95643.18
2023-04-11T11:04:51.417Z,95642.59
2023-04-11T11:07:19.489Z,95638.84
2023-04-11T11:09:49.642Z,95635.55
2023-04-11T11:12:17.668Z,95634.32
2023-04-11T11:14:47.651Z,95631.98
2023-04-11T11:17:17.031Z,95628.11
2023-04-11T11:19:46.465Z,95627.08
2023-04-11T11:22:16.428Z,95623.88
2023-04-11T11:24:44.686Z,95617.48
2023-04-11T11:27:24.265Z,95613.29
2023-04-11T11:29:52.969Z,95610.84
2023-04-11T11:32:29.028Z,95613.58
2023-04-11T11:34:57.995Z,95606.88
2023-04-11T11:37:26.219Z,95604.88
2023-04-11T11:39:54.564Z,95604.94
2023-04-11T11:42:22.688Z,95598.33
2023-04-11T11:44:50.931Z,95594.67
2023-04-11T11:47:18.997Z,95591.88
2023-04-11T11:49:52.569Z,95592.85
2023-04-11T11:52:41.363Z,95592.52
2023-04-11T11:55:31.729Z,95592.05
2023-04-11T11:58:02.498Z,95586.75
2023-04-11T12:00:34.977Z,95585.14
2023-04-11T12:03:03.613Z,95575.77
2023-04-11T12:05:33.626Z,95575.13
2023-04-11T12:08:07.469Z,95571.65
2023-04-11T12:10:38.279Z,95572.92
2023-04-11T12:13:23.783Z,95569.69
2023-04-11T12:15:55.988Z,95570.96
2023-04-11T12:18:26.493Z,95569.49
2023-04-11T12:20:55.559Z,95569.94
2023-04-11T12:23:23.703Z,95569.23
2023-04-11T12:25:51.674Z,95565.52
2023-04-11T12:28:19.783Z,95566.58
2023-04-11T12:30:47.828Z,95560.00
2023-04-11T12:33:16.564Z,95555.73
2023-04-11T12:35:44.623Z,95553.64
2023-04-11T12:38:15.031Z,95549.33
2023-04-11T12:40:46.849Z,95546.88
2023-04-11T12:43:14.828Z,95545.13
2023-04-11T12:45:42.874Z,95541.85
2023-04-11T12:48:11.136Z,95537.73
2023-04-11T12:50:39.102Z,95534.05
2023-04-11T12:53:07.065Z,95532.09
2023-04-11T12:55:35.196Z,95525.26
2023-04-11T12:58:03.309Z,95521.15
2023-04-11T13:00:31.262Z,95517.37
2023-04-11T13:02:59.441Z,95513.09
2023-04-11T13:05:27.785Z,95512.19
2023-04-11T13:07:55.839Z,95508.28
2023-04-11T13:10:23.831Z,95504.09
2023-04-11T13:12:53.385Z,95499.48
2023-04-11T13:15:21.406Z,95494.98
2023-04-11T13:17:50.335Z,95492.66
2023-04-11T13:20:18.313Z,95492.73
2023-04-11T13:22:46.238Z,95486.60
2023-04-11T13:25:14.456Z,95481.77
2023-04-11T13:27:42.583Z,95481.19
2023-04-11T13:30:11.425Z,95479.70
2023-04-11T13:32:39.544Z,95479.69
2023-04-11T13:35:08.295Z,95478.61
2023-04-11T13:37:36.253Z,95473.27
2023-04-11T13:40:06.889Z,95467.27
2023-04-11T13:42:35.347Z,95466.45
2023-04-11T13:45:04.611Z,95462.03
2023-04-11T13:47:34.849Z,95456.83
2023-04-11T13:50:06.233Z,95451.70
2023-04-11T13:52:34.159Z,95454.35
2023-04-11T13:55:02.140Z,95447.93
2023-04-11T13:57:30.114Z,95448.77
2023-04-11T13:59:58.006Z,95442.92
2023-04-11T14:02:26.206Z,95439.32
2023-04-11T14:04:54.303Z,95435.97
2023-04-11T14:07:22.456Z,95442.64
2023-04-11T14:09:50.584Z,95438.17
2023-04-11T14:12:18.629Z,95432.38
2023-04-11T14:14:46.703Z,95429.10
2023-04-11T14:17:14.636Z,95430.04
2023-04-11T14:19:42.623Z,95427.29
2023-04-11T14:22:10.903Z,95424.48
2023-04-11T14:24:38.902Z,95423.42
2023-04-11T14:27:06.847Z,95422.71
2023-04-11T14:29:37.669Z,95418.66
2023-04-11T14:32:06.957Z,95414.12
2023-04-11T14:34:35.175Z,95412.83
2023-04-11T14:37:03.499Z,95413.30
2023-04-11T14:39:31.760Z,95411.77
2023-04-11T14:42:01.993Z,95412.11
2023-04-11T14:44:30.479Z,95412.46
2023-04-11T14:46:58.517Z,95409.89
2023-04-11T14:49:26.467Z,95404.43
2023-04-11T14:51:54.453Z,95402.34
2023-04-11T14:54:27.219Z,95400.80
2023-04-11T14:56:55.314Z,95400.30
2023-04-11T14:59:23.412Z,95401.54
2023-04-11T15:01:52.572Z,95397.86
2023-04-11T15:04:21.086Z,95399.86
2023-04-11T15:06:49.218Z,95399.45
2023-04-11T15:09:20.221Z,95399.89
2023-04-11T15:11:48.901Z,95399.36
2023-04-11T15:14:16.776Z,95400.30
2023-04-11T15:16:44.908Z,95400.75
2023-04-11T15:19:12.818Z,95396.61
2023-04-11T15:21:40.868Z,95399.23
2023-04-11T15:24:08.943Z,95395.34
2023-04-11T15:26:36.862Z,95395.02
2023-04-11T15:29:04.821Z,95391.41
2023-04-11T15:31:32.936Z,95389.88
2023-04-11T15:34:04.035Z,95390.42
2023-04-11T15:36:32.261Z,95392.64
2023-04-11T15:39:00.864Z,95386.86
2023-04-11T15:41:28.797Z,95386.34
2023-04-11T15:43:56.955Z,95381.45
2023-04-11T15:46:25.089Z,95381.71
2023-04-11T15:48:53.152Z,95384.75
2023-04-11T15:51:22.129Z,95386.35
2023-04-11T15:53:50.479Z,95387.07
2023-04-11T15:56:19.909Z,95383.21
2023-04-11T15:58:49.219Z,95385.11
2023-04-11T16:01:23.039Z,95392.27
2023-04-11T16:03:52.312Z,95395.21
2023-04-11T16:06:20.458Z,95382.95
2023-04-11T16:08:48.386Z,95376.77
2023-04-11T16:11:16.591Z,95374.90
2023-04-11T16:13:44.602Z,95370.75
2023-04-11T16:16:12.695Z,95362.83
2023-04-11T16:18:40.789Z,95358.45
2023-04-11T16:21:13.739Z,95356.98
2023-04-11T16:23:42.724Z,95359.75
2023-04-11T16:26:11.482Z,95364.95
2023-04-11T16:28:39.589Z,95373.31
2023-04-11T16:31:07.976Z,95384.42
2023-04-11T16:33:36.376Z,95391.20
2023-04-11T16:36:04.901Z,95397.31
2023-04-11T16:38:33.142Z,95403.02
2023-04-11T16:41:01.290Z,95401.34
2023-04-11T16:43:29.322Z,95400.77
2023-04-11T16:45:57.594Z,95406.13
2023-04-11T16:48:25.840Z,95400.80
2023-04-11T16:50:53.838Z,95408.91
2023-04-11T16:53:22.046Z,95403.45
2023-04-11T16:55:53.701Z,95403.17
2023-04-11T16:58:22.009Z,95407.22
2023-04-11T17:00:51.221Z,95406.05
2023-04-11T17:03:20.016Z,95403.17
2023-04-11T17:05:48.297Z,95407.04
2023-04-11T17:08:17.527Z,95411.81
2023-04-11T17:10:45.515Z,95411.00
2023-04-11T17:13:14.965Z,95412.08
2023-04-11T17:15:42.921Z,95413.63
2023-04-11T17:18:14.122Z,95417.76
2023-04-11T17:20:43.697Z,95423.44
2023-04-11T17:23:12.345Z,95426.07
2023-04-11T17:25:40.583Z,95427.30
2023-04-11T17:28:09.626Z,95426.52
2023-04-11T17:30:37.853Z,95432.60
2023-04-11T17:33:06.247Z,95433.64
2023-04-11T17:35:34.899Z,95437.13
2023-04-11T17:38:02.838Z,95441.45
2023-04-11T17:40:30.811Z,95444.86
2023-04-11T17:42:59.669Z,95444.30
2023-04-11T17:45:28.223Z,95447.50
2023-04-11T17:47:56.212Z,95449.30
2023-04-11T17:50:24.481Z,95447.05
2023-04-11T17:52:53.194Z,95446.15
2023-04-11T17:55:21.702Z,95451.95
2023-04-11T17:57:51.653Z,95458.60
2023-04-11T18:00:26.199Z,95462.95
2023-04-11T18:02:59.130Z,95465.44
2023-04-11T18:05:30.782Z,95468.79
2023-04-11T18:08:00.177Z,95472.53
2023-04-11T18:10:29.656Z,95474.80
2023-04-11T18:12:58.647Z,95477.04
2023-04-11T18:15:27.850Z,95479.23
2023-04-11T18:17:56.016Z,95481.20
2023-04-11T18:20:23.951Z,95484.89
2023-04-11T18:22:56.400Z,95489.36
2023-04-11T18:25:24.924Z,95491.56
2023-04-11T18:27:53.336Z,95498.34
2023-04-11T18:30:21.326Z,95501.02
2023-04-11T18:32:51.926Z,95506.30
2023-04-11T18:35:20.831Z,95513.91
2023-04-11T18:37:49.044Z,95517.20
2023-04-11T18:40:18.142Z,95523.02
2023-04-11T18:42:49.318Z,95527.12
2023-04-11T18:45:20.533Z,95526.30
2023-04-11T18:47:49.348Z,95532.73
2023-04-11T18:50:18.571Z,95535.91
2023-04-11T18:52:49.851Z,95536.20
2023-04-11T18:55:34.196Z,95537.72
2023-04-11T18:58:03.729Z,95544.06
2023-04-11T19:00:34.710Z,95545.90
2023-04-11T19:03:03.455Z,95547.84
2023-04-11T19:05:32.325Z,95548.46
2023-04-11T19:08:01.231Z,95553.94
2023-04-11T19:10:29.235Z,95555.89
2023-04-11T19:12:57.330Z,95551.50
2023-04-11T19:15:25.719Z,95551.09
2023-04-11T19:17:57.547Z,95550.06
2023-04-11T19:20:28.710Z,95550.17
2023-04-11T19:22:57.077Z,95551.30
2023-04-11T19:25:25.718Z,95548.16
2023-04-11T19:27:53.987Z,95552.30
2023-04-11T19:30:22.111Z,95554.57
2023-04-11T19:32:50.840Z,95561.64
2023-04-11T19:35:21.576Z,95567.30
2023-04-11T19:37:49.728Z,95570.17
2023-04-11T19:40:18.744Z,95568.75
2023-04-11T19:42:46.849Z,95568.02
2023-04-11T19:45:15.282Z,95572.65
2023-04-11T19:47:43.549Z,95571.09
2023-04-11T19:50:15.258Z,95568.39
2023-04-11T19:52:43.842Z,95571.27
2023-04-11T19:55:12.844Z,95572.38
2023-04-11T19:57:43.510Z,95570.02
2023-04-11T20:00:17.304Z,95571.91
2023-04-11T20:02:50.475Z,95573.23
2023-04-11T20:05:21.678Z,95573.50
2023-04-11T20:07:49.705Z,95573.46
2023-04-11T20:10:17.894Z,95574.77
2023-04-11T20:12:46.112Z,95573.40
2023-04-11T20:15:15.094Z,95567.44
2023-04-11T20:17:46.088Z,95570.74
2023-04-11T20:20:15.656Z,95569.58
2023-04-11T20:22:44.906Z,95571.94
2023-04-11T20:25:13.141Z,95573.81
2023-04-11T20:27:42.449Z,95571.33
2023-04-11T20:30:10.920Z,95572.63
2023-04-11T20:32:40.479Z,95571.81
2023-04-11T20:35:10.214Z,95573.73
2023-04-11T20:37:40.415Z,95574.41
2023-04-11T20:40:11.175Z,95571.73
2023-04-11T20:42:41.015Z,95571.52
2023-04-11T20:45:11.365Z,95569.57
2023-04-11T20:47:41.351Z,95570.49
2023-04-11T20:50:13.332Z,95571.05
2023-04-11T20:52:43.440Z,95578.30
2023-04-11T20:55:12.782Z,95576.95
2023-04-11T20:57:41.077Z,95582.41
2023-04-11T21:00:15.057Z,95583.25
2023-04-11T21:02:46.081Z,95581.88
2023-04-11T21:05:15.077Z,95582.56
2023-04-11T21:07:43.280Z,95581.23
2023-04-11T21:10:12.327Z,95578.83
2023-04-11T21:12:41.697Z,95578.14
2023-04-11T21:15:10.992Z,95578.08
2023-04-11T21:17:39.815Z,95576.11
2023-04-11T21:20:17.934Z,95576.48
2023-04-11T21:22:54.505Z,95578.36
2023-04-11T21:25:24.230Z,95580.91
2023-04-11T21:27:52.311Z,95581.20
2023-04-11T21:30:20.800Z,95580.84
2023-04-11T21:32:48.908Z,95577.70
2023-04-11T21:35:16.887Z,95579.73
2023-04-11T21:37:47.076Z,95578.48
2023-04-11T21:40:16.628Z,95577.19
2023-04-11T21:42:44.595Z,95577.92
2023-04-11T21:45:12.495Z,95579.06
2023-04-11T21:47:40.533Z,95581.55
2023-04-11T21:50:09.257Z,95576.15
2023-04-11T21:52:37.269Z,95577.06
2023-04-11T21:55:08.853Z,95574.52
2023-04-11T21:57:37.514Z,95576.46
2023-04-11T22:00:07.998Z,95579.11
2023-04-11T22:02:42.126Z,95584.52
2023-04-11T22:05:11.072Z,95583.27
2023-04-11T22:07:48.210Z,95583.89
2023-04-11T22:10:23.626Z,95584.91
2023-04-11T22:12:54.569Z,95584.68
2023-04-11T22:15:24.217Z,95582.58
2023-04-11T22:17:56.594Z,95587.30
2023-04-11T22:20:24.763Z,95584.67
2023-04-11T22:22:52.800Z,95588.48
2023-04-11T22:25:22.477Z,95593.52
2023-04-11T22:27:54.431Z,95592.14
2023-04-11T22:30:23.630Z,95590.39
2023-04-11T22:32:54.228Z,95592.63
2023-04-11T22:35:25.141Z,95597.69
2023-04-11T22:37:55.395Z,95598.95
2023-04-11T22:40:24.253Z,95596.40
2023-04-11T22:42:52.786Z,95599.30
2023-04-11T22:45:22.817Z,95600.38
2023-04-11T22:47:54.334Z,95600.30
2023-04-11T22:50:23.559Z,95596.24
2023-04-11T22:52:51.607Z,95596.71
2023-04-11T22:55:20.137Z,95595.58
2023-04-11T22:57:48.083Z,95593.64
2023-04-11T23:00:16.517Z,95591.16
2023-04-11T23:02:44.864Z,95588.56
2023-04-11T23:05:12.761Z,95583.06
2023-04-11T23:07:40.629Z,95583.69
2023-04-11T23:10:09.199Z,95581.31
2023-04-11T23:12:37.173Z,95584.80
2023-04-11T23:15:05.909Z,95584.19
2023-04-11T23:17:34.146Z,95581.19
2023-04-11T23:20:03.402Z,95583.21
2023-04-11T23:22:31.552Z,95576.46
2023-04-11T23:24:59.551Z,95577.35
2023-04-11T23:27:27.801Z,95578.61
2023-04-11T23:29:55.814Z,95575.34
2023-04-11T23:32:23.954Z,95577.05
2023-04-11T23:34:51.829Z,95574.27
2023-04-11T23:37:19.766Z,95573.72
2023-04-11T23:39:47.817Z,95571.63
2023-04-11T23:42:15.808Z,95570.30
2023-04-11T23:44:43.707Z,95565.74
2023-04-11T23:47:11.627Z,95564.02
2023-04-11T23:49:39.580Z,95562.48
2023-04-11T23:52:07.798Z,95562.73
2023-04-11T23:54:36.551Z,95560.33
2023-04-11T23:57:04.755Z,95563.03
2023-04-11T23:59:33.241Z,95565.70
